Dunwoody, Georgia
Current Conditions -  °F | °C
As of 6:53 AM on Thursday 23 Oct 2014 (Local Time) from KPDK Reporting Station
Clear Clear  
Wind Chill:   Ceiling: Unl
Heat Index:   Visibility: 10mi
Dew Point:   Wind: 0mph
Humidity: 89%   Direction: NA
Pressure: 30.12"   Gusts: NA
Location:  33.95°N, 84.33°W
Report Text: KPDK 231053Z 00000KT 10SM CLR 06/04 A3012 RMK AO2 SLP200 T00560039
Loading
Personal Weather Stations






























Interactive Weather Map
Tropical Storm Tracking
New forecast layout! Learn more

10-Day Weather Forecast

Advertisements
Track Severe Weather on mobile